Time;durP1;ratioP1;P1;durP2;ratioP2;P2;SDS_P1;SDS_P2;PMS_P1;PMS_P2;Temp;Humidity;BMP_temperature;BMP_pressure;BME280_temperature;BME280_humidity;BME280_pressure;Samples;Min_cycle;Max_cycle;Signal;HPM_P1;HPM_P2
2021/01/18 00:00:10;;;;;;;4.38;3.95;;;3.30;90.10;;;;;;6126631;23;20548;-67
2021/01/18 00:02:37;;;;;;;4.55;3.67;;;3.30;90.00;;;;;;6126633;23;20176;-67
2021/01/18 00:05:05;;;;;;;5.00;4.15;;;3.30;90.00;;;;;;6126565;23;20187;-67
2021/01/18 00:07:41;;;;;;;4.88;3.63;;;3.30;90.00;;;;;;6126231;23;20199;-67
2021/01/18 00:10:10;;;;;;;4.22;3.83;;;3.30;90.10;;;;;;6126463;23;20164;-67
2021/01/18 00:12:36;;;;;;;3.55;3.08;;;3.30;90.00;;;;;;6126525;23;20228;-67
2021/01/18 00:15:04;;;;;;;3.60;2.92;;;3.30;90.00;;;;;;6126689;23;20539;-67
2021/01/18 00:17:30;;;;;;;5.22;3.38;;;3.40;90.10;;;;;;6126560;23;20228;-67
2021/01/18 00:19:57;;;;;;;4.30;3.90;;;3.40;90.00;;;;;;6126257;23;20200;-67
2021/01/18 00:22:23;;;;;;;5.40;4.10;;;3.40;89.90;;;;;;6126672;23;20196;-68
2021/01/18 00:24:49;;;;;;;6.30;3.72;;;3.40;90.10;;;;;;6126539;23;20232;-67
2021/01/18 00:27:17;;;;;;;4.30;3.35;;;3.30;90.00;;;;;;6126010;23;20168;-67
2021/01/18 00:29:43;;;;;;;9.13;3.80;;;3.30;90.40;;;;;;6126016;23;20168;-67
2021/01/18 00:32:10;;;;;;;4.75;3.95;;;3.30;90.30;;;;;;6126168;23;20278;-69
2021/01/18 00:34:36;;;;;;;5.47;4.03;;;3.30;90.30;;;;;;6126295;23;20224;-67
2021/01/18 00:37:03;;;;;;;4.43;3.60;;;3.30;90.40;;;;;;6126331;23;20496;-67
2021/01/18 00:39:30;;;;;;;6.07;4.72;;;3.40;90.40;;;;;;6126120;23;20176;-67
2021/01/18 00:41:56;;;;;;;4.65;3.78;;;3.40;90.30;;;;;;6125770;23;20175;-67
2021/01/18 00:44:24;;;;;;;4.70;3.67;;;3.40;90.20;;;;;;6125958;23;20168;-68
2021/01/18 00:46:50;;;;;;;4.20;3.10;;;3.40;90.20;;;;;;6126322;23;20251;-67
2021/01/18 00:49:16;;;;;;;3.80;3.30;;;3.40;90.20;;;;;;6126297;23;20524;-67
2021/01/18 00:51:43;;;;;;;4.68;3.42;;;3.40;90.20;;;;;;6125774;23;20195;-67
2021/01/18 01:00:54;;;;;;;4.45;3.03;;;3.40;90.50;;;;;;6126536;23;20272;-67
2021/01/18 01:03:21;;;;;;;4.03;3.20;;;3.40;90.30;;;;;;6126105;23;20196;-67
2021/01/18 01:05:47;;;;;;;3.55;2.92;;;3.40;90.40;;;;;;6125717;23;20169;-69
2021/01/18 01:08:14;;;;;;;3.25;2.45;;;3.40;90.50;;;;;;6126133;23;20199;-68
2021/01/18 01:10:40;;;;;;;4.80;2.88;;;3.40;90.50;;;;;;6125896;23;20232;-67
2021/01/18 01:13:08;;;;;;;4.57;3.10;;;3.30;90.50;;;;;;6125862;23;20771;-67
2021/01/18 01:15:35;;;;;;;4.15;3.25;;;3.30;90.60;;;;;;6125935;23;20449;-67
2021/01/18 01:18:03;;;;;;;3.63;2.47;;;3.30;90.80;;;;;;6125990;23;20541;-68
2021/01/18 01:20:29;;;;;;;4.00;3.15;;;3.40;90.80;;;;;;6125953;23;20508;-67
2021/01/18 01:22:56;;;;;;;3.03;2.55;;;3.30;90.40;;;;;;6125956;23;20202;-72
2021/01/18 01:25:25;;;;;;;3.45;2.40;;;3.30;90.60;;;;;;6125498;23;20243;-69
2021/01/18 01:27:52;;;;;;;3.70;3.10;;;3.20;90.90;;;;;;6125479;23;20702;-67
2021/01/18 01:30:20;;;;;;;2.83;2.15;;;3.20;91.10;;;;;;6125960;23;20203;-67
2021/01/18 01:32:48;;;;;;;5.25;3.50;;;3.10;91.10;;;;;;6125887;23;20211;-67
2021/01/18 01:35:17;;;;;;;4.88;2.70;;;3.10;91.20;;;;;;6125948;23;20172;-68
2021/01/18 01:37:43;;;;;;;4.10;2.95;;;3.20;91.00;;;;;;6125897;23;20529;-68
2021/01/18 01:40:12;;;;;;;3.00;2.10;;;3.20;91.10;;;;;;6125980;23;20168;-70
2021/01/18 01:42:39;;;;;;;2.40;1.60;;;3.20;91.00;;;;;;6125831;23;20169;-67
2021/01/18 01:45:08;;;;;;;2.60;1.85;;;3.20;90.90;;;;;;6125328;23;20256;-67
2021/01/18 01:47:38;;;;;;;2.78;1.73;;;3.20;90.90;;;;;;6125804;23;20204;-67
2021/01/18 01:50:08;;;;;;;2.67;1.92;;;3.20;90.90;;;;;;6125960;23;20540;-68
2021/01/18 01:52:39;;;;;;;2.85;2.47;;;3.30;90.80;;;;;;6125779;23;20274;-67
2021/01/18 01:55:12;;;;;;;4.47;2.03;;;3.30;90.70;;;;;;6125857;23;20161;-67
2021/01/18 01:57:39;;;;;;;3.03;1.98;;;3.30;90.70;;;;;;6125567;23;20233;-67
2021/01/18 02:00:08;;;;;;;2.58;1.83;;;3.30;90.80;;;;;;6126125;23;20275;-67
2021/01/18 02:02:34;;;;;;;3.33;2.35;;;3.30;90.70;;;;;;6125461;23;20672;-67
2021/01/18 02:05:12;;;;;;;3.35;2.45;;;3.30;90.60;;;;;;6125720;23;20243;-67
2021/01/18 02:07:40;;;;;;;4.97;2.92;;;3.30;90.80;;;;;;6125454;23;20244;-66
2021/01/18 02:10:07;;;;;;;5.20;2.75;;;3.30;90.70;;;;;;6125198;23;20187;-67
2021/01/18 02:12:34;;;;;;;2.90;2.08;;;3.30;90.50;;;;;;6126533;23;20259;-67
2021/01/18 02:15:11;;;;;;;4.00;2.70;;;3.30;90.40;;;;;;6127568;23;20204;-67
2021/01/18 02:17:48;;;;;;;4.28;3.60;;;3.30;90.30;;;;;;6128106;23;20535;-67
2021/01/18 02:21:01;;;;;;;4.35;2.95;;;3.30;90.30;;;;;;6127648;23;20483;-68
2021/01/18 02:23:59;;;;;;;3.50;2.63;;;3.30;90.10;;;;;;6127124;23;20215;-67
2021/01/18 02:26:46;;;;;;;8.63;3.20;;;3.30;90.10;;;;;;6127166;23;20199;-67
2021/01/18 02:29:24;;;;;;;5.18;3.08;;;3.30;90.10;;;;;;6127710;23;20188;-69
2021/01/18 02:32:19;;;;;;;5.65;4.00;;;3.30;90.10;;;;;;6127067;23;20157;-67
2021/01/18 02:35:11;;;;;;;4.07;3.10;;;3.30;90.10;;;;;;6127502;23;20157;-67
2021/01/18 02:38:09;;;;;;;4.32;3.40;;;3.30;89.80;;;;;;6127342;23;20156;-67
2021/01/18 02:40:47;;;;;;;5.40;3.70;;;3.30;89.80;;;;;;6127334;23;20161;-67
2021/01/18 02:43:18;;;;;;;5.03;3.65;;;3.20;89.80;;;;;;6127318;23;20157;-67
2021/01/18 02:45:46;;;;;;;5.22;3.63;;;3.20;89.60;;;;;;6127493;23;20235;-68
2021/01/18 02:48:14;;;;;;;4.47;3.35;;;3.20;89.80;;;;;;6126921;23;20232;-69
2021/01/18 02:50:42;;;;;;;5.07;3.95;;;3.20;89.60;;;;;;6127000;23;20671;-67
2021/01/18 02:53:10;;;;;;;5.32;4.30;;;3.20;89.40;;;;;;6126809;23;20275;-67
2021/01/18 02:55:36;;;;;;;5.82;4.43;;;3.20;89.60;;;;;;6126796;23;20200;-67
2021/01/18 02:58:04;;;;;;;7.20;4.30;;;3.20;89.80;;;;;;6126649;23;20247;-67
2021/01/18 03:00:36;;;;;;;5.10;3.70;;;3.20;89.90;;;;;;6126599;23;20234;-67
2021/01/18 03:03:10;;;;;;;4.45;3.40;;;3.20;90.00;;;;;;6127170;23;20192;-67
2021/01/18 03:05:47;;;;;;;6.00;4.15;;;3.20;89.40;;;;;;6126658;23;20164;-67
2021/01/18 03:08:22;;;;;;;6.40;4.55;;;3.20;89.20;;;;;;6127099;23;20153;-68
2021/01/18 03:10:56;;;;;;;5.50;4.45;;;3.20;89.50;;;;;;6127071;23;20163;-68
2021/01/18 03:13:29;;;;;;;4.22;3.50;;;3.20;89.50;;;;;;6126538;23;20186;-68
2021/01/18 03:16:01;;;;;;;5.75;3.65;;;3.20;89.50;;;;;;6127074;23;20189;-67
2021/01/18 03:18:30;;;;;;;7.07;4.10;;;3.20;89.40;;;;;;6127117;23;20168;-67
2021/01/18 03:20:57;;;;;;;10.05;4.88;;;3.20;89.40;;;;;;6126803;23;20196;-67
2021/01/18 03:23:24;;;;;;;4.47;3.92;;;3.20;89.30;;;;;;6126444;23;20203;-68
2021/01/18 03:25:52;;;;;;;7.45;4.00;;;3.10;89.20;;;;;;6126852;23;20683;-67
2021/01/18 03:28:19;;;;;;;6.00;4.05;;;3.10;89.30;;;;;;6127089;23;20170;-67
2021/01/18 03:30:47;;;;;;;5.18;3.80;;;3.10;89.20;;;;;;6126259;23;20172;-67
2021/01/18 03:33:14;;;;;;;4.75;3.50;;;3.20;89.00;;;;;;6126452;23;20188;-67
2021/01/18 03:35:40;;;;;;;5.03;3.90;;;3.10;88.90;;;;;;6127033;23;20175;-67
2021/01/18 03:38:07;;;;;;;7.43;3.75;;;3.20;88.80;;;;;;6126879;23;20176;-67
2021/01/18 03:40:35;;;;;;;4.57;3.60;;;3.10;88.30;;;;;;6126371;23;20247;-67
2021/01/18 03:43:04;;;;;;;5.55;3.60;;;3.20;88.30;;;;;;6126703;23;20539;-67
2021/01/18 03:45:32;;;;;;;6.65;4.10;;;3.20;88.20;;;;;;6126643;23;20186;-67
2021/01/18 03:47:58;;;;;;;6.32;3.80;;;3.20;87.90;;;;;;6126812;23;20211;-68
2021/01/18 03:50:25;;;;;;;5.55;4.05;;;3.20;87.50;;;;;;6126747;23;20175;-67
2021/01/18 03:52:52;;;;;;;4.20;3.30;;;3.20;87.70;;;;;;6126116;23;20275;-68
2021/01/18 03:55:19;;;;;;;7.32;4.35;;;3.20;87.50;;;;;;6126760;23;20196;-67
2021/01/18 03:57:51;;;;;;;4.90;3.78;;;3.20;87.70;;;;;;6126238;23;20247;-68
2021/01/18 04:00:19;;;;;;;6.57;3.80;;;3.20;87.30;;;;;;6127373;23;20188;-67
2021/01/18 04:02:46;;;;;;;4.55;3.50;;;3.20;87.00;;;;;;6127091;23;20200;-68
2021/01/18 04:05:13;;;;;;;6.75;4.10;;;3.20;87.40;;;;;;6126656;23;20200;-66
2021/01/18 04:07:40;;;;;;;6.15;3.63;;;3.10;86.90;;;;;;6126875;23;20168;-67
2021/01/18 04:10:08;;;;;;;4.70;3.05;;;3.10;87.00;;;;;;6126771;23;20173;-66
2021/01/18 04:12:39;;;;;;;6.85;3.90;;;3.10;86.90;;;;;;6126745;23;20274;-66
2021/01/18 04:15:08;;;;;;;7.78;4.30;;;3.00;87.30;;;;;;6126967;23;20156;-66
2021/01/18 04:17:35;;;;;;;9.65;4.43;;;3.00;87.10;;;;;;6126811;23;20211;-67
2021/01/18 04:20:02;;;;;;;4.43;3.33;;;3.00;87.10;;;;;;6126806;23;20222;-66
2021/01/18 04:22:28;;;;;;;4.20;3.15;;;3.00;87.20;;;;;;6126718;23;20526;-66
2021/01/18 04:24:55;;;;;;;4.80;3.67;;;3.10;87.10;;;;;;6126679;23;20243;-67
2021/01/18 04:27:21;;;;;;;6.15;4.00;;;3.00;87.00;;;;;;6126727;23;20515;-67
2021/01/18 04:29:47;;;;;;;6.38;3.60;;;3.00;87.40;;;;;;6126215;23;20203;-67
2021/01/18 04:32:15;;;;;;;4.72;3.65;;;3.00;87.30;;;;;;6126533;23;20168;-67
2021/01/18 04:34:42;;;;;;;6.88;4.50;;;3.00;87.80;;;;;;6126399;23;20207;-66
2021/01/18 04:37:09;;;;;;;4.63;3.35;;;2.90;87.80;;;;;;6126318;23;20176;-67
2021/01/18 04:39:35;;;;;;;4.38;3.42;;;3.00;87.90;;;;;;6126656;23;20215;-66
2021/01/18 04:42:02;;;;;;;4.68;3.22;;;2.90;88.00;;;;;;6126221;23;20740;-67
2021/01/18 04:44:28;;;;;;;6.13;3.85;;;3.00;87.60;;;;;;6126215;23;20199;-68
2021/01/18 04:46:56;;;;;;;5.35;3.53;;;3.00;87.40;;;;;;6126538;23;20223;-66
2021/01/18 04:49:24;;;;;;;7.30;3.65;;;3.00;87.20;;;;;;6126673;23;20204;-66
2021/01/18 04:51:52;;;;;;;5.35;3.80;;;3.00;87.30;;;;;;6126312;23;20639;-67
2021/01/18 04:54:20;;;;;;;4.75;3.40;;;3.00;87.60;;;;;;6126409;23;20192;-67
2021/01/18 04:57:12;;;;;;;4.10;3.28;;;3.00;87.60;;;;;;6125943;23;20581;-67
2021/01/18 04:59:44;;;;;;;6.20;4.07;;;3.00;87.50;;;;;;6116263;23;20223;-67
2021/01/18 05:02:15;;;;;;;5.35;2.80;;;3.00;87.80;;;;;;6126464;23;20222;-66
2021/01/18 05:04:44;;;;;;;5.47;3.50;;;2.90;87.30;;;;;;6126694;23;20190;-66
2021/01/18 05:07:53;;;;;;;6.00;3.35;;;2.90;88.00;;;;;;6126079;23;20247;-66
2021/01/18 05:10:27;;;;;;;5.13;3.50;;;3.00;87.70;;;;;;6126395;23;20172;-66
2021/01/18 05:12:58;;;;;;;4.75;3.70;;;3.00;87.70;;;;;;6126287;23;20561;-66
2021/01/18 05:15:25;;;;;;;4.35;2.88;;;3.00;87.60;;;;;;6126245;23;20200;-66
2021/01/18 05:18:00;;;;;;;4.95;4.25;;;3.00;88.20;;;;;;6126362;23;20168;-66
2021/01/18 05:20:28;;;;;;;3.78;3.08;;;3.00;88.40;;;;;;6125901;23;20163;-67
2021/01/18 05:22:55;;;;;;;11.13;4.10;;;3.00;88.70;;;;;;6126197;23;20594;-66
2021/01/18 05:25:22;;;;;;;6.40;4.78;;;3.10;88.60;;;;;;6126331;23;20231;-66
2021/01/18 05:28:07;;;;;;;5.72;4.10;;;3.10;88.80;;;;;;6126383;23;20198;-67
2021/01/18 05:30:35;;;;;;;6.47;3.80;;;3.10;89.20;;;;;;6126152;23;20192;-67
2021/01/18 05:33:04;;;;;;;7.10;3.80;;;3.10;89.20;;;;;;6125757;23;20239;-67
2021/01/18 05:35:32;;;;;;;9.68;5.57;;;3.10;89.20;;;;;;6125994;23;20175;-66
2021/01/18 05:38:09;;;;;;;3.88;2.38;;;3.10;89.20;;;;;;6126307;23;20253;-66
2021/01/18 05:40:38;;;;;;;7.90;4.35;;;3.10;89.30;;;;;;6126489;23;20492;-66
2021/01/18 05:43:06;;;;;;;6.03;3.72;;;3.10;88.90;;;;;;6126354;23;20196;-66
2021/01/18 05:45:35;;;;;;;12.07;7.80;;;3.10;88.60;;;;;;6125898;23;20212;-67
2021/01/18 05:48:04;;;;;;;7.57;3.80;;;3.10;88.80;;;;;;6128226;23;20243;-67
2021/01/18 05:50:32;;;;;;;4.65;2.90;;;3.10;88.90;;;;;;6128163;23;20164;-67
2021/01/18 05:52:59;;;;;;;4.85;3.20;;;3.10;88.80;;;;;;6127591;23;20239;-67
2021/01/18 05:55:27;;;;;;;7.40;4.82;;;3.10;88.70;;;;;;6127788;23;20647;-67
2021/01/18 05:57:55;;;;;;;7.63;5.72;;;3.10;88.50;;;;;;6128233;23;20550;-68
2021/01/18 06:00:33;;;;;;;10.32;5.32;;;3.20;88.10;;;;;;6128010;23;20196;-67
2021/01/18 06:03:04;;;;;;;12.38;7.03;;;3.10;88.00;;;;;;6127621;23;20276;-67
2021/01/18 06:05:33;;;;;;;4.13;2.88;;;3.10;88.30;;;;;;6128095;23;20157;-67
2021/01/18 06:08:10;;;;;;;43.22;17.23;;;3.10;88.40;;;;;;6127590;23;20654;-67
2021/01/18 06:10:37;;;;;;;10.07;5.25;;;3.00;88.50;;;;;;6127589;23;20172;-66
2021/01/18 06:13:04;;;;;;;6.40;3.25;;;3.10;88.60;;;;;;6127443;23;20664;-67
2021/01/18 06:15:32;;;;;;;4.82;3.45;;;3.10;88.80;;;;;;6127714;23;20251;-68
2021/01/18 06:17:58;;;;;;;85.35;31.08;;;3.10;88.50;;;;;;6127912;23;20229;-68
2021/01/18 06:20:27;;;;;;;135.50;51.28;;;3.10;88.50;;;;;;6127416;23;20180;-68
2021/01/18 06:22:55;;;;;;;204.57;82.75;;;3.10;88.60;;;;;;6127745;23;20164;-66
2021/01/18 06:25:23;;;;;;;79.88;37.13;;;3.20;88.40;;;;;;6122487;23;20270;-68
2021/01/18 06:27:51;;;;;;;23.42;11.65;;;3.20;88.50;;;;;;6122181;23;20487;-67
2021/01/18 06:30:26;;;;;;;12.38;5.53;;;3.20;88.40;;;;;;6127499;23;20196;-68
2021/01/18 06:32:55;;;;;;;16.40;6.45;;;3.20;88.30;;;;;;6127895;23;20499;-67
2021/01/18 06:35:27;;;;;;;8.75;4.65;;;3.30;88.30;;;;;;6127544;23;20175;-67
2021/01/18 06:38:03;;;;;;;12.90;6.95;;;3.30;88.00;;;;;;6128195;23;20490;-67
2021/01/18 06:40:33;;;;;;;10.70;4.43;;;3.30;88.30;;;;;;6127657;23;20159;-66
2021/01/18 06:43:02;;;;;;;5.75;3.78;;;3.30;88.40;;;;;;6127566;23;20495;-66
2021/01/18 06:45:33;;;;;;;10.18;5.47;;;3.30;88.30;;;;;;6127439;23;20168;-66
2021/01/18 06:48:01;;;;;;;8.38;6.00;;;3.30;88.20;;;;;;6127230;23;20172;-66
2021/01/18 06:50:32;;;;;;;7.45;4.60;;;3.30;88.30;;;;;;6127215;23;20168;-67
2021/01/18 06:53:16;;;;;;;5.57;3.60;;;3.30;88.30;;;;;;6127661;23;20192;-66
2021/01/18 06:56:03;;;;;;;5.82;4.15;;;3.30;88.00;;;;;;6127304;23;20289;-66
2021/01/18 06:58:52;;;;;;;5.20;3.88;;;3.30;88.20;;;;;;6127307;23;20195;-66
2021/01/18 07:01:28;;;;;;;7.47;3.47;;;3.30;88.00;;;;;;6127630;23;20159;-66
2021/01/18 07:03:58;;;;;;;6.05;2.58;;;3.30;87.90;;;;;;6127196;23;20157;-68
2021/01/18 07:06:35;;;;;;;3.72;2.42;;;3.30;87.90;;;;;;6127609;23;20180;-68
2021/01/18 07:09:05;;;;;;;3.35;3.00;;;3.30;87.70;;;;;;6127494;23;20292;-66
2021/01/18 07:11:31;;;;;;;6.25;3.83;;;3.30;87.80;;;;;;6127066;23;20176;-68
2021/01/18 07:13:58;;;;;;;3.80;2.95;;;3.30;88.30;;;;;;6127147;23;20250;-68
2021/01/18 07:16:25;;;;;;;4.05;2.80;;;3.40;88.10;;;;;;6127309;23;20252;-68
2021/01/18 07:18:56;;;;;;;4.13;2.90;;;3.30;88.10;;;;;;6127351;23;20211;-67
2021/01/18 07:21:26;;;;;;;4.30;2.83;;;3.30;88.20;;;;;;6127438;23;20175;-66
2021/01/18 07:23:58;;;;;;;5.50;2.47;;;3.40;88.00;;;;;;6127389;23;20247;-67
2021/01/18 07:26:56;;;;;;;4.38;3.10;;;3.40;88.10;;;;;;6127176;23;20273;-66
2021/01/18 07:29:25;;;;;;;3.80;2.78;;;3.40;88.10;;;;;;6127269;23;20204;-66
2021/01/18 07:31:56;;;;;;;4.93;3.28;;;3.40;88.00;;;;;;6127263;23;20175;-66
2021/01/18 07:34:24;;;;;;;4.15;2.90;;;3.40;88.20;;;;;;6126687;23;20216;-66
2021/01/18 07:36:52;;;;;;;3.97;3.10;;;3.40;88.20;;;;;;6127203;23;20495;-66
2021/01/18 07:39:30;;;;;;;3.70;2.83;;;3.40;88.40;;;;;;6126818;23;20176;-66
2021/01/18 07:41:57;;;;;;;4.65;3.80;;;3.40;88.40;;;;;;6126786;23;20204;-67
2021/01/18 07:44:33;;;;;;;4.45;2.85;;;3.40;88.20;;;;;;6127061;23;20483;-67
2021/01/18 07:47:00;;;;;;;5.18;3.08;;;3.40;87.80;;;;;;6127147;23;20491;-66
2021/01/18 07:49:35;;;;;;;4.82;3.47;;;3.50;88.10;;;;;;6126880;23;20169;-67
2021/01/18 07:52:28;;;;;;;4.93;3.70;;;3.50;88.00;;;;;;6126703;23;20156;-65
2021/01/18 07:54:56;;;;;;;4.47;3.17;;;3.50;87.90;;;;;;6126710;23;20156;-66
2021/01/18 07:57:28;;;;;;;6.32;3.65;;;3.50;87.50;;;;;;6123460;23;20256;-66
2021/01/18 08:00:32;;;;;;;4.38;3.15;;;3.60;87.30;;;;;;6126963;23;20227;-68
2021/01/18 08:03:23;;;;;;;6.18;3.88;;;3.60;87.20;;;;;;6126424;23;20180;-67
2021/01/18 08:05:52;;;;;;;5.82;3.15;;;3.60;86.70;;;;;;6126693;23;20188;-67
2021/01/18 08:08:19;;;;;;;4.13;3.22;;;3.70;87.00;;;;;;6123554;23;20639;-69
2021/01/18 08:10:54;;;;;;;6.05;3.08;;;3.70;86.60;;;;;;6112775;23;20683;-67
2021/01/18 08:13:42;;;;;;;4.88;3.40;;;3.70;86.30;;;;;;6112918;23;20210;-68
2021/01/18 08:16:13;;;;;;;6.75;3.70;;;3.70;85.90;;;;;;6108888;23;20256;-68
2021/01/18 08:19:19;;;;;;;6.97;3.42;;;3.80;86.20;;;;;;6116871;23;20252;-67
2021/01/18 08:22:06;;;;;;;4.68;3.83;;;3.80;85.80;;;;;;6027568;23;20155;-68
2021/01/18 08:24:55;;;;;;;5.00;3.60;;;3.90;85.40;;;;;;6112230;23;20210;-67
2021/01/18 08:27:47;;;;;;;6.30;4.53;;;3.90;85.40;;;;;;6111282;23;20507;-71
2021/01/18 08:30:20;;;;;;;8.00;5.07;;;3.90;85.00;;;;;;6103345;23;20159;-72
2021/01/18 08:32:56;;;;;;;8.93;4.20;;;4.00;84.60;;;;;;6112172;23;20718;-69
2021/01/18 08:35:31;;;;;;;4.78;3.85;;;4.00;84.70;;;;;;6112693;23;20200;-69
2021/01/18 08:38:00;;;;;;;6.13;4.45;;;4.00;84.20;;;;;;6112808;23;20152;-68
2021/01/18 08:40:41;;;;;;;4.97;2.95;;;4.00;84.10;;;;;;6115128;23;20255;-66
2021/01/18 08:43:08;;;;;;;7.10;4.28;;;4.10;84.10;;;;;;6107396;23;20612;-68
2021/01/18 08:45:41;;;;;;;5.57;4.18;;;4.10;84.00;;;;;;6112627;23;20283;-67
2021/01/18 08:48:08;;;;;;;7.43;4.38;;;4.20;84.20;;;;;;6115208;23;20283;-67
2021/01/18 08:50:43;;;;;;;5.65;4.45;;;4.20;83.70;;;;;;6109587;23;20255;-67
2021/01/18 08:53:30;;;;;;;9.75;5.88;;;4.20;83.50;;;;;;6118249;23;20689;-69
2021/01/18 08:55:57;;;;;;;5.53;3.78;;;4.30;83.60;;;;;;6120603;23;20608;-68
2021/01/18 08:58:35;;;;;;;5.35;4.40;;;4.30;83.60;;;;;;6120284;23;20267;-68
2021/01/18 09:01:04;;;;;;;6.00;4.78;;;4.40;84.10;;;;;;6121240;23;20270;-70
2021/01/18 09:03:30;;;;;;;18.60;12.30;;;4.50;83.70;;;;;;6121768;23;20255;-66
2021/01/18 09:05:58;;;;;;;11.85;6.85;;;4.50;83.20;;;;;;6122030;23;20196;-66
2021/01/18 09:08:26;;;;;;;10.38;8.38;;;4.60;83.00;;;;;;6120235;23;20677;-66
2021/01/18 09:10:54;;;;;;;16.17;10.55;;;4.70;82.90;;;;;;6121958;23;20247;-68
2021/01/18 09:13:22;;;;;;;8.85;5.90;;;4.90;82.80;;;;;;6119792;23;20727;-66
2021/01/18 09:15:50;;;;;;;10.60;7.50;;;5.00;82.00;;;;;;6121286;23;20251;-67
2021/01/18 09:18:17;;;;;;;11.75;7.85;;;5.30;81.60;;;;;;6120119;23;20623;-67
2021/01/18 09:20:45;;;;;;;10.77;8.65;;;5.60;80.30;;;;;;6121554;23;20251;-68
2021/01/18 09:23:12;;;;;;;9.65;6.10;;;5.70;78.00;;;;;;6120356;23;20200;-71
2021/01/18 09:25:39;;;;;;;10.65;7.78;;;5.70;77.20;;;;;;6121603;23;20169;-66
2021/01/18 09:28:11;;;;;;;16.65;13.25;;;5.80;75.60;;;;;;6120263;23;20254;-67
2021/01/18 09:30:39;;;;;;;5.45;4.05;;;5.70;74.90;;;;;;6121608;23;20517;-66
2021/01/18 09:33:07;;;;;;;6.20;3.88;;;5.70;74.30;;;;;;6120382;23;20215;-70
2021/01/18 09:35:36;;;;;;;6.82;5.07;;;5.60;74.70;;;;;;6120805;23;20252;-66
2021/01/18 09:38:03;;;;;;;6.30;5.00;;;5.60;75.00;;;;;;6120591;23;20164;-69
2021/01/18 09:40:31;;;;;;;7.80;4.85;;;5.60;74.70;;;;;;6121205;23;20579;-68
2021/01/18 09:42:58;;;;;;;7.72;4.90;;;5.50;74.70;;;;;;6121682;23;20622;-67
2021/01/18 09:45:26;;;;;;;7.28;4.45;;;5.50;74.60;;;;;;6119531;23;20263;-67
2021/01/18 09:47:54;;;;;;;9.52;5.30;;;5.50;74.20;;;;;;6121646;23;20165;-67
2021/01/18 09:50:22;;;;;;;8.25;7.20;;;5.50;74.30;;;;;;6119869;23;20531;-68
2021/01/18 09:52:51;;;;;;;10.27;4.53;;;5.50;74.20;;;;;;6121713;23;20160;-67
2021/01/18 09:55:20;;;;;;;5.78;4.40;;;5.60;74.90;;;;;;6120946;23;20249;-67
2021/01/18 09:57:54;;;;;;;7.45;4.90;;;5.60;75.00;;;;;;6124244;23;20267;-68
2021/01/18 10:00:22;;;;;;;7.07;4.55;;;5.60;74.60;;;;;;6113244;23;20195;-67
2021/01/18 10:02:50;;;;;;;8.73;4.75;;;5.70;74.60;;;;;;6122821;23;20168;-67
2021/01/18 10:05:28;;;;;;;6.13;4.28;;;5.70;74.50;;;;;;6123993;23;20196;-67
2021/01/18 10:07:56;;;;;;;6.40;4.10;;;5.70;73.60;;;;;;6124180;23;20153;-67
2021/01/18 10:10:23;;;;;;;7.10;5.97;;;5.80;73.50;;;;;;6124052;23;20459;-68
2021/01/18 10:12:51;;;;;;;6.40;5.07;;;5.80;73.40;;;;;;6123700;23;20165;-68
2021/01/18 10:15:28;;;;;;;6.15;4.40;;;5.80;73.40;;;;;;6123369;23;20176;-67
2021/01/18 10:17:55;;;;;;;6.50;4.40;;;5.80;72.90;;;;;;6124535;23;20553;-68
2021/01/18 10:20:28;;;;;;;7.13;4.45;;;5.80;71.90;;;;;;6114491;23;20317;-67
2021/01/18 10:22:56;;;;;;;9.15;5.68;;;5.80;71.60;;;;;;6118724;23;20168;-67
2021/01/18 10:25:28;;;;;;;8.52;4.25;;;5.80;71.90;;;;;;6120623;23;20248;-70
2021/01/18 10:27:56;;;;;;;6.13;4.40;;;5.80;71.00;;;;;;6113022;23;20176;-67
2021/01/18 10:30:26;;;;;;;9.13;7.90;;;5.80;70.40;;;;;;6121366;23;20255;-67
2021/01/18 10:32:54;;;;;;;8.50;4.07;;;5.80;71.00;;;;;;6124674;23;20224;-68
2021/01/18 10:35:23;;;;;;;5.13;3.75;;;5.90;71.60;;;;;;6126456;23;20204;-66
2021/01/18 10:37:50;;;;;;;7.50;4.70;;;6.00;71.40;;;;;;6126571;23;20204;-67
2021/01/18 10:40:22;;;;;;;12.88;4.10;;;6.00;71.00;;;;;;6126468;23;20251;-67
2021/01/18 10:42:50;;;;;;;3.78;3.22;;;6.00;69.80;;;;;;6126403;23;20465;-69
2021/01/18 10:45:18;;;;;;;6.55;4.43;;;6.00;69.20;;;;;;6125897;23;20247;-67
2021/01/18 10:47:54;;;;;;;16.15;5.50;;;6.10;69.60;;;;;;6126648;23;20172;-67
2021/01/18 10:50:24;;;;;;;9.63;5.43;;;6.10;69.70;;;;;;6126331;23;20160;-67
2021/01/18 10:52:53;;;;;;;7.78;6.50;;;6.10;69.30;;;;;;6125978;23;20187;-66
2021/01/18 10:55:23;;;;;;;10.38;5.70;;;6.20;69.40;;;;;;6126088;23;20168;-66
2021/01/18 10:57:51;;;;;;;14.00;8.95;;;6.10;68.20;;;;;;6126078;23;20207;-66
2021/01/18 11:00:20;;;;;;;19.05;10.88;;;6.10;67.30;;;;;;6125970;23;20199;-67
2021/01/18 11:02:57;;;;;;;6.07;3.83;;;6.10;68.00;;;;;;6126406;23;20575;-67
2021/01/18 11:05:35;;;;;;;5.90;3.78;;;6.10;67.30;;;;;;6125956;23;20236;-68
2021/01/18 11:08:03;;;;;;;6.68;5.97;;;6.10;67.70;;;;;;6125922;23;20160;-67
2021/01/18 11:10:32;;;;;;;5.38;3.70;;;6.00;66.80;;;;;;6126228;23;20204;-68
2021/01/18 11:13:10;;;;;;;4.82;3.38;;;6.00;66.20;;;;;;6125275;23;20165;-68
2021/01/18 11:15:38;;;;;;;4.30;3.40;;;6.00;66.40;;;;;;6125452;23;20695;-67
2021/01/18 11:18:08;;;;;;;6.55;2.95;;;6.00;67.10;;;;;;6125905;23;20164;-67
2021/01/18 11:20:35;;;;;;;4.30;3.50;;;5.90;65.60;;;;;;6126050;23;20164;-67
2021/01/18 11:23:01;;;;;;;6.63;5.32;;;5.80;66.30;;;;;;6125784;23;20727;-67
2021/01/18 11:25:30;;;;;;;6.50;4.10;;;5.80;66.40;;;;;;6125497;23;20246;-67
2021/01/18 11:28:08;;;;;;;4.97;3.70;;;5.80;67.40;;;;;;6126013;23;20165;-67
2021/01/18 11:30:36;;;;;;;5.50;2.85;;;5.90;67.80;;;;;;6125076;23;20184;-69
2021/01/18 11:33:03;;;;;;;5.22;3.33;;;5.80;67.40;;;;;;6126391;23;20192;-65
2021/01/18 11:35:29;;;;;;;6.90;4.50;;;5.80;67.30;;;;;;6125908;23;20169;-67
2021/01/18 11:37:56;;;;;;;69.05;35.28;;;5.90;67.20;;;;;;6125807;23;20219;-68
2021/01/18 11:40:22;;;;;;;47.72;23.70;;;5.90;66.70;;;;;;6125872;23;20266;-66
2021/01/18 11:42:48;;;;;;;12.13;7.80;;;6.00;67.50;;;;;;6126066;23;20204;-67
2021/01/18 11:45:16;;;;;;;13.95;5.70;;;6.00;67.80;;;;;;6125535;23;20243;-69
2021/01/18 11:47:42;;;;;;;8.68;7.38;;;6.00;66.40;;;;;;6125991;23;20206;-67
2021/01/18 11:50:11;;;;;;;21.80;14.45;;;6.00;67.40;;;;;;6125584;23;20260;-68
2021/01/18 11:52:44;;;;;;;9.00;6.35;;;6.10;67.70;;;;;;6125693;23;20207;-68
2021/01/18 11:55:12;;;;;;;5.68;3.67;;;6.10;66.30;;;;;;6126040;23;20304;-67
2021/01/18 11:57:42;;;;;;;4.95;3.45;;;6.10;65.60;;;;;;6125711;23;20165;-67
2021/01/18 12:00:09;;;;;;;8.80;6.47;;;6.10;65.80;;;;;;6122676;23;20239;-68
2021/01/18 12:02:37;;;;;;;18.33;12.57;;;6.10;66.20;;;;;;6125493;23;20172;-68
2021/01/18 12:05:04;;;;;;;4.80;3.70;;;6.10;66.00;;;;;;6125185;23;20251;-68
2021/01/18 12:07:30;;;;;;;5.35;4.03;;;6.10;65.00;;;;;;6125665;23;20203;-68
2021/01/18 12:09:57;;;;;;;12.55;8.68;;;6.10;65.00;;;;;;6125464;23;20300;-68
2021/01/18 12:12:23;;;;;;;12.95;5.63;;;6.10;65.60;;;;;;6125553;23;20196;-68
2021/01/18 12:14:50;;;;;;;4.93;3.60;;;6.10;65.00;;;;;;6125341;23;20279;-68
2021/01/18 12:17:16;;;;;;;5.03;3.50;;;6.00;64.70;;;;;;6123151;23;20255;-69
2021/01/18 12:19:45;;;;;;;4.85;3.13;;;6.10;65.40;;;;;;6123603;23;20200;-68
2021/01/18 12:22:11;;;;;;;4.35;2.95;;;6.10;65.50;;;;;;6125458;23;20252;-67
2021/01/18 12:24:40;;;;;;;4.85;2.85;;;6.20;65.80;;;;;;6115366;23;20495;-69
2021/01/18 12:27:08;;;;;;;5.45;3.42;;;6.20;65.60;;;;;;6122388;23;20168;-67
2021/01/18 12:29:35;;;;;;;3.70;3.20;;;6.20;64.50;;;;;;6121463;23;20226;-67
2021/01/18 12:32:01;;;;;;;11.70;8.35;;;6.20;63.90;;;;;;6120831;23;20213;-69
2021/01/18 12:34:28;;;;;;;5.70;3.67;;;6.30;64.60;;;;;;6123043;23;20189;-67
2021/01/18 12:36:56;;;;;;;5.03;3.45;;;6.30;64.80;;;;;;6123402;23;20200;-68
2021/01/18 12:39:25;;;;;;;3.65;2.78;;;6.30;64.30;;;;;;6123023;23;20215;-67
2021/01/18 12:41:51;;;;;;;6.90;3.97;;;6.30;64.30;;;;;;6122681;23;20247;-67
2021/01/18 12:44:18;;;;;;;11.10;9.60;;;6.30;64.50;;;;;;6093957;23;20470;-68
2021/01/18 12:46:46;;;;;;;7.22;4.35;;;6.30;63.80;;;;;;6066222;23;20531;-68
2021/01/18 12:49:13;;;;;;;7.05;3.22;;;6.30;63.20;;;;;;6065272;23;20180;-67
2021/01/18 12:51:39;;;;;;;4.53;2.25;;;6.20;63.50;;;;;;6064959;23;20174;-67
2021/01/18 12:54:07;;;;;;;3.58;2.45;;;6.20;63.50;;;;;;6064758;23;20209;-69
2021/01/18 12:56:33;;;;;;;4.30;2.95;;;6.20;63.20;;;;;;6064807;23;20181;-66
2021/01/18 12:59:00;;;;;;;6.60;3.05;;;6.20;63.30;;;;;;6065242;23;20172;-66
2021/01/18 13:01:31;;;;;;;3.58;2.88;;;6.10;64.10;;;;;;6064902;23;20162;-67
2021/01/18 13:03:58;;;;;;;4.28;2.80;;;6.10;64.10;;;;;;6065150;23;20172;-67
2021/01/18 13:06:38;;;;;;;9.27;3.42;;;6.10;62.90;;;;;;6065805;23;20166;-67
2021/01/18 13:09:06;;;;;;;3.90;2.53;;;6.00;63.30;;;;;;6066209;23;20217;-66
2021/01/18 13:11:33;;;;;;;4.78;2.10;;;5.90;63.00;;;;;;6066921;23;20204;-66
2021/01/18 13:13:59;;;;;;;4.18;2.28;;;5.90;63.40;;;;;;6066842;23;20324;-66
2021/01/18 13:16:25;;;;;;;5.13;2.58;;;5.90;63.40;;;;;;6066296;23;20229;-68
2021/01/18 13:18:52;;;;;;;4.35;2.42;;;5.80;64.50;;;;;;6066845;23;20252;-67